sensor_id;sensor_type;location;lat;lon;timestamp;P1;durP1;ratioP1;P2;durP2;ratioP2
10661;SDS011;5379;51.034;7.006;2022-12-05T00:00:51;21.23;;;16.47;;
10661;SDS011;5379;51.034;7.006;2022-12-05T00:03:19;20.40;;;16.80;;
10661;SDS011;5379;51.034;7.006;2022-12-05T00:05:47;21.90;;;15.80;;
10661;SDS011;5379;51.034;7.006;2022-12-05T00:08:14;18.27;;;15.43;;
10661;SDS011;5379;51.034;7.006;2022-12-05T00:10:41;21.30;;;15.70;;
10661;SDS011;5379;51.034;7.006;2022-12-05T00:13:09;27.13;;;16.00;;
10661;SDS011;5379;51.034;7.006;2022-12-05T00:15:38;21.20;;;15.43;;
10661;SDS011;5379;51.034;7.006;2022-12-05T00:18:06;21.17;;;16.23;;
10661;SDS011;5379;51.034;7.006;2022-12-05T00:20:33;22.30;;;15.50;;
10661;SDS011;5379;51.034;7.006;2022-12-05T00:23:00;19.93;;;15.27;;
10661;SDS011;5379;51.034;7.006;2022-12-05T00:25:27;22.27;;;16.53;;
10661;SDS011;5379;51.034;7.006;2022-12-05T00:27:54;22.50;;;15.77;;
10661;SDS011;5379;51.034;7.006;2022-12-05T00:30:21;20.07;;;15.67;;
10661;SDS011;5379;51.034;7.006;2022-12-05T00:32:49;23.43;;;16.07;;
10661;SDS011;5379;51.034;7.006;2022-12-05T00:35:17;26.63;;;16.67;;
10661;SDS011;5379;51.034;7.006;2022-12-05T00:37:44;23.10;;;16.23;;
10661;SDS011;5379;51.034;7.006;2022-12-05T00:40:11;19.37;;;15.53;;
10661;SDS011;5379;51.034;7.006;2022-12-05T00:42:38;25.27;;;17.03;;
10661;SDS011;5379;51.034;7.006;2022-12-05T00:45:05;19.73;;;16.43;;
10661;SDS011;5379;51.034;7.006;2022-12-05T00:47:33;19.90;;;15.30;;
10661;SDS011;5379;51.034;7.006;2022-12-05T00:50:02;19.13;;;14.83;;
10661;SDS011;5379;51.034;7.006;2022-12-05T00:52:29;17.10;;;15.03;;
10661;SDS011;5379;51.034;7.006;2022-12-05T00:54:56;23.43;;;16.10;;
10661;SDS011;5379;51.034;7.006;2022-12-05T00:57:23;20.30;;;15.47;;
10661;SDS011;5379;51.034;7.006;2022-12-05T00:59:50;17.90;;;15.33;;
10661;SDS011;5379;51.034;7.006;2022-12-05T01:02:17;22.40;;;16.83;;
10661;SDS011;5379;51.034;7.006;2022-12-05T01:04:44;20.63;;;15.57;;
10661;SDS011;5379;51.034;7.006;2022-12-05T01:07:13;22.50;;;14.67;;
10661;SDS011;5379;51.034;7.006;2022-12-05T01:09:40;20.13;;;15.13;;
10661;SDS011;5379;51.034;7.006;2022-12-05T01:12:07;21.17;;;15.13;;
10661;SDS011;5379;51.034;7.006;2022-12-05T01:14:34;23.10;;;15.67;;
10661;SDS011;5379;51.034;7.006;2022-12-05T01:17:01;19.87;;;15.10;;
10661;SDS011;5379;51.034;7.006;2022-12-05T01:19:28;20.73;;;15.03;;
10661;SDS011;5379;51.034;7.006;2022-12-05T01:21:56;17.97;;;15.03;;
10661;SDS011;5379;51.034;7.006;2022-12-05T01:24:25;28.63;;;16.13;;
10661;SDS011;5379;51.034;7.006;2022-12-05T01:26:53;25.50;;;15.43;;
10661;SDS011;5379;51.034;7.006;2022-12-05T01:29:21;17.27;;;15.00;;
10661;SDS011;5379;51.034;7.006;2022-12-05T05:32:34;25.73;;;20.87;;
10661;SDS011;5379;51.034;7.006;2022-12-05T05:35:01;23.00;;;20.47;;
10661;SDS011;5379;51.034;7.006;2022-12-05T05:37:28;26.70;;;21.00;;
10661;SDS011;5379;51.034;7.006;2022-12-05T05:39:55;26.23;;;20.87;;
10661;SDS011;5379;51.034;7.006;2022-12-05T05:42:22;27.83;;;20.67;;
10661;SDS011;5379;51.034;7.006;2022-12-05T05:44:49;28.13;;;20.67;;
10661;SDS011;5379;51.034;7.006;2022-12-05T05:47:16;32.77;;;21.23;;
10661;SDS011;5379;51.034;7.006;2022-12-05T05:49:44;27.43;;;20.80;;
10661;SDS011;5379;51.034;7.006;2022-12-05T05:52:11;24.97;;;21.37;;
10661;SDS011;5379;51.034;7.006;2022-12-05T05:54:38;22.83;;;19.30;;
10661;SDS011;5379;51.034;7.006;2022-12-05T05:57:06;27.60;;;20.17;;
10661;SDS011;5379;51.034;7.006;2022-12-05T05:59:33;29.60;;;21.90;;
10661;SDS011;5379;51.034;7.006;2022-12-05T06:02:00;23.17;;;20.50;;
10661;SDS011;5379;51.034;7.006;2022-12-05T06:04:27;24.57;;;19.90;;
10661;SDS011;5379;51.034;7.006;2022-12-05T06:06:55;24.17;;;20.37;;
10661;SDS011;5379;51.034;7.006;2022-12-05T06:09:22;25.93;;;20.03;;
10661;SDS011;5379;51.034;7.006;2022-12-05T06:11:49;24.10;;;19.53;;
10661;SDS011;5379;51.034;7.006;2022-12-05T06:14:16;22.97;;;17.97;;
10661;SDS011;5379;51.034;7.006;2022-12-05T06:16:43;23.57;;;18.87;;
10661;SDS011;5379;51.034;7.006;2022-12-05T06:19:10;26.03;;;18.73;;
10661;SDS011;5379;51.034;7.006;2022-12-05T06:21:37;25.93;;;19.60;;
10661;SDS011;5379;51.034;7.006;2022-12-05T06:24:06;22.70;;;18.33;;
10661;SDS011;5379;51.034;7.006;2022-12-05T06:26:33;22.13;;;17.77;;
10661;SDS011;5379;51.034;7.006;2022-12-05T06:29:12;24.67;;;18.13;;
10661;SDS011;5379;51.034;7.006;2022-12-05T06:31:40;21.33;;;17.47;;
10661;SDS011;5379;51.034;7.006;2022-12-05T06:34:07;24.17;;;17.83;;
10661;SDS011;5379;51.034;7.006;2022-12-05T06:36:34;21.80;;;17.63;;
10661;SDS011;5379;51.034;7.006;2022-12-05T06:39:01;22.07;;;18.07;;
10661;SDS011;5379;51.034;7.006;2022-12-05T06:41:30;25.10;;;19.37;;
10661;SDS011;5379;51.034;7.006;2022-12-05T06:43:58;28.23;;;20.23;;
10661;SDS011;5379;51.034;7.006;2022-12-05T06:46:29;20.87;;;16.97;;
10661;SDS011;5379;51.034;7.006;2022-12-05T06:48:56;18.63;;;15.67;;
10661;SDS011;5379;51.034;7.006;2022-12-05T06:51:23;23.13;;;18.30;;
10661;SDS011;5379;51.034;7.006;2022-12-05T06:53:50;19.67;;;16.40;;
10661;SDS011;5379;51.034;7.006;2022-12-05T06:56:18;19.13;;;16.70;;
10661;SDS011;5379;51.034;7.006;2022-12-05T06:59:06;21.03;;;17.27;;
10661;SDS011;5379;51.034;7.006;2022-12-05T07:01:33;21.70;;;16.60;;
10661;SDS011;5379;51.034;7.006;2022-12-05T07:04:06;22.10;;;16.70;;
10661;SDS011;5379;51.034;7.006;2022-12-05T07:06:37;22.33;;;17.43;;
10661;SDS011;5379;51.034;7.006;2022-12-05T07:09:05;27.57;;;17.60;;
10661;SDS011;5379;51.034;7.006;2022-12-05T07:11:32;22.40;;;16.93;;
10661;SDS011;5379;51.034;7.006;2022-12-05T07:13:59;29.27;;;17.80;;
10661;SDS011;5379;51.034;7.006;2022-12-05T07:16:28;22.03;;;18.17;;
10661;SDS011;5379;51.034;7.006;2022-12-05T07:18:55;18.93;;;15.87;;
10661;SDS011;5379;51.034;7.006;2022-12-05T07:21:23;30.83;;;16.83;;
10661;SDS011;5379;51.034;7.006;2022-12-05T07:23:50;18.40;;;16.47;;
10661;SDS011;5379;51.034;7.006;2022-12-05T07:26:17;22.80;;;18.13;;
10661;SDS011;5379;51.034;7.006;2022-12-05T07:28:47;23.33;;;18.23;;
10661;SDS011;5379;51.034;7.006;2022-12-05T07:31:16;22.83;;;18.07;;
10661;SDS011;5379;51.034;7.006;2022-12-05T07:33:45;24.60;;;18.80;;
10661;SDS011;5379;51.034;7.006;2022-12-05T07:36:13;21.83;;;17.50;;
10661;SDS011;5379;51.034;7.006;2022-12-05T07:38:41;25.93;;;18.70;;
10661;SDS011;5379;51.034;7.006;2022-12-05T07:41:18;22.80;;;17.37;;
10661;SDS011;5379;51.034;7.006;2022-12-05T07:43:49;23.83;;;18.30;;
10661;SDS011;5379;51.034;7.006;2022-12-05T07:46:16;31.17;;;19.37;;
10661;SDS011;5379;51.034;7.006;2022-12-05T07:48:43;31.03;;;19.93;;
10661;SDS011;5379;51.034;7.006;2022-12-05T07:51:11;23.73;;;19.07;;
10661;SDS011;5379;51.034;7.006;2022-12-05T07:53:38;25.10;;;18.33;;
10661;SDS011;5379;51.034;7.006;2022-12-05T07:56:08;21.23;;;17.80;;
10661;SDS011;5379;51.034;7.006;2022-12-05T07:58:38;21.33;;;17.87;;
10661;SDS011;5379;51.034;7.006;2022-12-05T08:01:05;24.97;;;18.73;;
10661;SDS011;5379;51.034;7.006;2022-12-05T08:03:33;19.00;;;16.40;;
10661;SDS011;5379;51.034;7.006;2022-12-05T08:06:01;22.77;;;19.17;;
10661;SDS011;5379;51.034;7.006;2022-12-05T08:08:30;24.80;;;18.50;;
10661;SDS011;5379;51.034;7.006;2022-12-05T08:11:01;20.77;;;18.47;;
10661;SDS011;5379;51.034;7.006;2022-12-05T08:13:29;23.37;;;17.73;;
10661;SDS011;5379;51.034;7.006;2022-12-05T08:15:59;23.83;;;17.70;;
10661;SDS011;5379;51.034;7.006;2022-12-05T08:18:27;22.37;;;17.80;;
10661;SDS011;5379;51.034;7.006;2022-12-05T08:20:54;19.10;;;17.10;;
10661;SDS011;5379;51.034;7.006;2022-12-05T08:23:21;21.63;;;18.07;;
10661;SDS011;5379;51.034;7.006;2022-12-05T08:25:49;22.03;;;18.30;;
10661;SDS011;5379;51.034;7.006;2022-12-05T08:28:16;21.17;;;18.33;;
10661;SDS011;5379;51.034;7.006;2022-12-05T08:30:43;20.40;;;18.10;;
10661;SDS011;5379;51.034;7.006;2022-12-05T08:33:10;22.73;;;18.27;;
10661;SDS011;5379;51.034;7.006;2022-12-05T08:35:37;23.63;;;19.77;;
10661;SDS011;5379;51.034;7.006;2022-12-05T08:38:04;30.77;;;19.53;;
10661;SDS011;5379;51.034;7.006;2022-12-05T08:40:31;28.37;;;18.27;;
10661;SDS011;5379;51.034;7.006;2022-12-05T08:43:01;18.73;;;16.67;;
10661;SDS011;5379;51.034;7.006;2022-12-05T08:45:28;25.20;;;18.17;;
10661;SDS011;5379;51.034;7.006;2022-12-05T08:47:56;20.93;;;16.53;;
10661;SDS011;5379;51.034;7.006;2022-12-05T08:50:23;23.30;;;17.27;;
10661;SDS011;5379;51.034;7.006;2022-12-05T08:52:50;25.67;;;19.90;;
10661;SDS011;5379;51.034;7.006;2022-12-05T08:55:17;22.83;;;17.83;;
10661;SDS011;5379;51.034;7.006;2022-12-05T08:57:44;29.83;;;20.93;;
10661;SDS011;5379;51.034;7.006;2022-12-05T09:00:13;22.97;;;18.27;;
10661;SDS011;5379;51.034;7.006;2022-12-05T09:02:41;26.93;;;19.97;;
10661;SDS011;5379;51.034;7.006;2022-12-05T09:05:08;22.33;;;18.33;;
10661;SDS011;5379;51.034;7.006;2022-12-05T09:07:35;19.13;;;17.10;;
10661;SDS011;5379;51.034;7.006;2022-12-05T09:10:02;24.27;;;18.47;;
10661;SDS011;5379;51.034;7.006;2022-12-05T09:12:30;23.77;;;18.23;;
10661;SDS011;5379;51.034;7.006;2022-12-05T09:14:57;20.33;;;18.20;;
10661;SDS011;5379;51.034;7.006;2022-12-05T09:17:25;25.20;;;18.27;;
10661;SDS011;5379;51.034;7.006;2022-12-05T09:19:52;19.97;;;16.87;;
10661;SDS011;5379;51.034;7.006;2022-12-05T09:22:19;19.53;;;17.17;;
10661;SDS011;5379;51.034;7.006;2022-12-05T09:24:46;30.27;;;17.90;;
10661;SDS011;5379;51.034;7.006;2022-12-05T09:27:14;20.37;;;16.93;;
10661;SDS011;5379;51.034;7.006;2022-12-05T09:29:41;21.57;;;17.33;;
10661;SDS011;5379;51.034;7.006;2022-12-05T09:32:08;23.70;;;18.53;;
10661;SDS011;5379;51.034;7.006;2022-12-05T09:34:37;29.30;;;18.00;;
10661;SDS011;5379;51.034;7.006;2022-12-05T09:37:05;21.50;;;16.37;;
10661;SDS011;5379;51.034;7.006;2022-12-05T09:39:33;19.60;;;17.17;;
10661;SDS011;5379;51.034;7.006;2022-12-05T09:44:57;16.90;;;15.33;;
10661;SDS011;5379;51.034;7.006;2022-12-05T09:47:37;21.90;;;15.87;;
10661;SDS011;5379;51.034;7.006;2022-12-05T09:50:16;18.53;;;16.70;;
10661;SDS011;5379;51.034;7.006;2022-12-05T09:52:53;20.33;;;17.07;;
10661;SDS011;5379;51.034;7.006;2022-12-05T09:55:28;23.27;;;16.97;;
10661;SDS011;5379;51.034;7.006;2022-12-05T09:58:01;18.27;;;16.20;;
10661;SDS011;5379;51.034;7.006;2022-12-05T10:00:30;21.33;;;17.93;;
10661;SDS011;5379;51.034;7.006;2022-12-05T10:03:01;21.60;;;17.93;;
10661;SDS011;5379;51.034;7.006;2022-12-05T10:05:39;25.47;;;20.03;;
10661;SDS011;5379;51.034;7.006;2022-12-05T10:08:12;32.50;;;20.40;;
10661;SDS011;5379;51.034;7.006;2022-12-05T10:10:49;21.97;;;19.50;;
10661;SDS011;5379;51.034;7.006;2022-12-05T10:13:28;28.57;;;19.03;;
10661;SDS011;5379;51.034;7.006;2022-12-05T10:16:10;22.73;;;19.80;;
10661;SDS011;5379;51.034;7.006;2022-12-05T10:18:42;26.00;;;22.13;;
10661;SDS011;5379;51.034;7.006;2022-12-05T10:21:15;22.43;;;20.03;;
10661;SDS011;5379;51.034;7.006;2022-12-05T10:23:53;24.73;;;20.37;;
10661;SDS011;5379;51.034;7.006;2022-12-05T10:26:22;22.40;;;18.50;;
10661;SDS011;5379;51.034;7.006;2022-12-05T10:28:54;24.00;;;18.67;;
10661;SDS011;5379;51.034;7.006;2022-12-05T10:31:25;23.20;;;18.33;;
10661;SDS011;5379;51.034;7.006;2022-12-05T10:33:57;18.77;;;16.87;;
10661;SDS011;5379;51.034;7.006;2022-12-05T10:36:30;19.70;;;17.60;;
10661;SDS011;5379;51.034;7.006;2022-12-05T10:38:57;21.27;;;18.23;;
10661;SDS011;5379;51.034;7.006;2022-12-05T10:41:25;20.77;;;18.63;;
10661;SDS011;5379;51.034;7.006;2022-12-05T10:43:52;22.83;;;18.73;;
10661;SDS011;5379;51.034;7.006;2022-12-05T10:46:21;21.27;;;17.53;;
10661;SDS011;5379;51.034;7.006;2022-12-05T10:48:48;25.10;;;20.03;;
10661;SDS011;5379;51.034;7.006;2022-12-05T10:51:16;25.23;;;20.23;;
10661;SDS011;5379;51.034;7.006;2022-12-05T10:53:48;28.20;;;22.20;;
10661;SDS011;5379;51.034;7.006;2022-12-05T10:59:07;25.00;;;21.73;;
10661;SDS011;5379;51.034;7.006;2022-12-05T11:01:36;24.63;;;20.97;;
10661;SDS011;5379;51.034;7.006;2022-12-05T11:04:18;22.63;;;18.67;;
10661;SDS011;5379;51.034;7.006;2022-12-05T11:06:48;27.27;;;20.87;;
10661;SDS011;5379;51.034;7.006;2022-12-05T11:09:20;27.07;;;22.10;;
10661;SDS011;5379;51.034;7.006;2022-12-05T11:14:53;32.10;;;26.23;;
10661;SDS011;5379;51.034;7.006;2022-12-05T11:17:29;29.10;;;25.10;;
10661;SDS011;5379;51.034;7.006;2022-12-05T11:19:58;28.03;;;23.30;;
10661;SDS011;5379;51.034;7.006;2022-12-05T11:22:31;31.43;;;25.67;;
10661;SDS011;5379;51.034;7.006;2022-12-05T11:25:00;35.07;;;24.53;;
10661;SDS011;5379;51.034;7.006;2022-12-05T11:27:48;28.73;;;23.63;;
10661;SDS011;5379;51.034;7.006;2022-12-05T11:30:19;26.50;;;23.10;;
10661;SDS011;5379;51.034;7.006;2022-12-05T11:32:48;26.37;;;22.27;;
10661;SDS011;5379;51.034;7.006;2022-12-05T11:35:20;28.57;;;23.00;;
10661;SDS011;5379;51.034;7.006;2022-12-05T11:37:52;26.67;;;22.17;;
10661;SDS011;5379;51.034;7.006;2022-12-05T11:40:24;24.07;;;20.67;;
10661;SDS011;5379;51.034;7.006;2022-12-05T11:46:12;31.23;;;23.30;;
10661;SDS011;5379;51.034;7.006;2022-12-05T11:48:55;37.50;;;28.07;;
10661;SDS011;5379;51.034;7.006;2022-12-05T11:51:35;37.87;;;27.67;;
10661;SDS011;5379;51.034;7.006;2022-12-05T11:54:12;30.10;;;26.83;;
10661;SDS011;5379;51.034;7.006;2022-12-05T11:57:01;27.87;;;24.07;;
10661;SDS011;5379;51.034;7.006;2022-12-05T11:59:37;30.37;;;26.40;;
10661;SDS011;5379;51.034;7.006;2022-12-05T12:02:43;31.33;;;25.47;;
10661;SDS011;5379;51.034;7.006;2022-12-05T12:05:30;27.07;;;23.57;;
10661;SDS011;5379;51.034;7.006;2022-12-05T12:08:06;33.60;;;26.17;;
10661;SDS011;5379;51.034;7.006;2022-12-05T12:10:50;30.87;;;22.50;;
10661;SDS011;5379;51.034;7.006;2022-12-05T12:13:41;25.27;;;22.00;;
10661;SDS011;5379;51.034;7.006;2022-12-05T12:16:20;24.40;;;21.13;;
10661;SDS011;5379;51.034;7.006;2022-12-05T12:19:02;25.87;;;20.20;;
10661;SDS011;5379;51.034;7.006;2022-12-05T12:21:56;22.53;;;19.30;;
10661;SDS011;5379;51.034;7.006;2022-12-05T12:24:41;23.30;;;18.20;;
10661;SDS011;5379;51.034;7.006;2022-12-05T12:27:24;22.23;;;17.03;;
10661;SDS011;5379;51.034;7.006;2022-12-05T12:30:02;18.97;;;16.10;;
10661;SDS011;5379;51.034;7.006;2022-12-05T12:32:38;20.63;;;16.03;;
10661;SDS011;5379;51.034;7.006;2022-12-05T12:35:22;17.10;;;15.30;;
10661;SDS011;5379;51.034;7.006;2022-12-05T12:40:50;15.70;;;14.03;;
10661;SDS011;5379;51.034;7.006;2022-12-05T12:43:23;14.67;;;13.23;;
10661;SDS011;5379;51.034;7.006;2022-12-05T12:46:06;15.50;;;13.90;;
10661;SDS011;5379;51.034;7.006;2022-12-05T12:48:47;13.87;;;12.43;;
10661;SDS011;5379;51.034;7.006;2022-12-05T12:51:30;13.93;;;12.53;;
10661;SDS011;5379;51.034;7.006;2022-12-05T12:54:08;13.87;;;12.47;;
10661;SDS011;5379;51.034;7.006;2022-12-05T12:56:49;14.90;;;12.47;;
10661;SDS011;5379;51.034;7.006;2022-12-05T13:02:12;14.70;;;12.43;;
10661;SDS011;5379;51.034;7.006;2022-12-05T13:04:46;13.90;;;12.50;;
10661;SDS011;5379;51.034;7.006;2022-12-05T13:07:16;16.77;;;12.80;;
10661;SDS011;5379;51.034;7.006;2022-12-05T13:09:49;12.97;;;11.77;;
10661;SDS011;5379;51.034;7.006;2022-12-05T13:12:23;12.87;;;11.33;;
10661;SDS011;5379;51.034;7.006;2022-12-05T13:14:55;16.73;;;11.67;;
10661;SDS011;5379;51.034;7.006;2022-12-05T13:17:26;11.77;;;10.63;;
10661;SDS011;5379;51.034;7.006;2022-12-05T13:19:55;12.10;;;10.83;;
10661;SDS011;5379;51.034;7.006;2022-12-05T13:22:23;12.50;;;11.30;;
10661;SDS011;5379;51.034;7.006;2022-12-05T13:24:56;17.27;;;10.67;;
10661;SDS011;5379;51.034;7.006;2022-12-05T13:27:23;13.80;;;10.97;;
10661;SDS011;5379;51.034;7.006;2022-12-05T13:29:53;12.53;;;10.93;;
10661;SDS011;5379;51.034;7.006;2022-12-05T13:32:23;11.93;;;10.87;;
10661;SDS011;5379;51.034;7.006;2022-12-05T13:34:55;13.33;;;12.00;;
10661;SDS011;5379;51.034;7.006;2022-12-05T13:37:25;18.80;;;13.40;;
10661;SDS011;5379;51.034;7.006;2022-12-05T13:40:21;13.57;;;10.90;;
10661;SDS011;5379;51.034;7.006;2022-12-05T13:43:09;12.17;;;10.37;;
10661;SDS011;5379;51.034;7.006;2022-12-05T13:45:37;11.13;;;10.13;;
10661;SDS011;5379;51.034;7.006;2022-12-05T13:48:13;11.67;;;9.60;;
10661;SDS011;5379;51.034;7.006;2022-12-05T13:50:48;11.03;;;9.93;;
10661;SDS011;5379;51.034;7.006;2022-12-05T13:53:27;11.90;;;10.47;;
10661;SDS011;5379;51.034;7.006;2022-12-05T13:56:01;10.87;;;9.57;;
10661;SDS011;5379;51.034;7.006;2022-12-05T13:58:44;12.17;;;10.67;;
10661;SDS011;5379;51.034;7.006;2022-12-05T14:07:09;11.97;;;10.70;;
10661;SDS011;5379;51.034;7.006;2022-12-05T14:09:50;14.10;;;11.13;;
10661;SDS011;5379;51.034;7.006;2022-12-05T14:12:29;13.33;;;11.93;;
10661;SDS011;5379;51.034;7.006;2022-12-05T14:15:23;12.93;;;11.43;;
10661;SDS011;5379;51.034;7.006;2022-12-05T14:17:54;14.90;;;13.50;;
10661;SDS011;5379;51.034;7.006;2022-12-05T14:20:27;14.07;;;12.57;;
10661;SDS011;5379;51.034;7.006;2022-12-05T14:23:08;18.63;;;13.67;;
10661;SDS011;5379;51.034;7.006;2022-12-05T14:26:00;16.37;;;13.20;;
10661;SDS011;5379;51.034;7.006;2022-12-05T14:28:48;18.20;;;13.47;;
10661;SDS011;5379;51.034;7.006;2022-12-05T14:31:31;17.20;;;14.40;;
10661;SDS011;5379;51.034;7.006;2022-12-05T14:34:20;17.67;;;14.20;;
10661;SDS011;5379;51.034;7.006;2022-12-05T14:36:57;14.90;;;12.77;;
10661;SDS011;5379;51.034;7.006;2022-12-05T14:39:29;15.80;;;14.20;;
10661;SDS011;5379;51.034;7.006;2022-12-05T14:42:06;15.90;;;13.40;;
10661;SDS011;5379;51.034;7.006;2022-12-05T14:44:46;16.53;;;13.43;;
10661;SDS011;5379;51.034;7.006;2022-12-05T14:47:17;18.57;;;13.70;;
10661;SDS011;5379;51.034;7.006;2022-12-05T14:49:51;14.57;;;13.13;;
10661;SDS011;5379;51.034;7.006;2022-12-05T14:52:22;17.03;;;13.90;;
10661;SDS011;5379;51.034;7.006;2022-12-05T14:54:51;16.73;;;12.00;;
10661;SDS011;5379;51.034;7.006;2022-12-05T14:57:21;15.80;;;12.03;;
10661;SDS011;5379;51.034;7.006;2022-12-05T14:59:49;14.00;;;12.60;;
10661;SDS011;5379;51.034;7.006;2022-12-05T15:02:21;12.77;;;11.47;;
10661;SDS011;5379;51.034;7.006;2022-12-05T15:04:52;12.03;;;10.83;;
10661;SDS011;5379;51.034;7.006;2022-12-05T15:07:27;13.13;;;11.57;;
10661;SDS011;5379;51.034;7.006;2022-12-05T15:09:58;13.23;;;11.43;;
10661;SDS011;5379;51.034;7.006;2022-12-05T15:12:28;12.43;;;11.17;;
10661;SDS011;5379;51.034;7.006;2022-12-05T15:15:11;14.33;;;10.67;;
10661;SDS011;5379;51.034;7.006;2022-12-05T15:17:45;12.37;;;11.20;;
10661;SDS011;5379;51.034;7.006;2022-12-05T15:20:17;12.23;;;10.40;;
10661;SDS011;5379;51.034;7.006;2022-12-05T15:22:49;12.47;;;11.17;;
10661;SDS011;5379;51.034;7.006;2022-12-05T15:25:20;15.07;;;11.50;;
10661;SDS011;5379;51.034;7.006;2022-12-05T15:27:54;13.07;;;10.63;;
10661;SDS011;5379;51.034;7.006;2022-12-05T15:30:23;12.33;;;10.87;;
10661;SDS011;5379;51.034;7.006;2022-12-05T15:32:51;14.03;;;10.77;;
10661;SDS011;5379;51.034;7.006;2022-12-05T15:35:18;12.40;;;11.10;;
10661;SDS011;5379;51.034;7.006;2022-12-05T15:37:47;13.33;;;11.73;;
10661;SDS011;5379;51.034;7.006;2022-12-05T15:40:19;13.73;;;12.30;;
10661;SDS011;5379;51.034;7.006;2022-12-05T15:42:48;14.73;;;12.47;;
10661;SDS011;5379;51.034;7.006;2022-12-05T15:45:18;15.20;;;12.70;;
10661;SDS011;5379;51.034;7.006;2022-12-05T15:47:48;13.43;;;11.90;;
10661;SDS011;5379;51.034;7.006;2022-12-05T15:50:18;14.50;;;12.63;;
10661;SDS011;5379;51.034;7.006;2022-12-05T15:52:52;14.10;;;12.50;;
10661;SDS011;5379;51.034;7.006;2022-12-05T15:55:23;14.10;;;12.60;;
10661;SDS011;5379;51.034;7.006;2022-12-05T15:57:56;17.00;;;12.53;;
10661;SDS011;5379;51.034;7.006;2022-12-05T16:00:27;16.70;;;14.20;;
10661;SDS011;5379;51.034;7.006;2022-12-05T16:02:56;15.63;;;13.57;;
10661;SDS011;5379;51.034;7.006;2022-12-05T16:05:28;14.27;;;12.83;;
10661;SDS011;5379;51.034;7.006;2022-12-05T16:08:01;13.80;;;12.37;;
10661;SDS011;5379;51.034;7.006;2022-12-05T16:10:30;13.97;;;12.33;;
10661;SDS011;5379;51.034;7.006;2022-12-05T16:13:01;13.67;;;12.27;;
10661;SDS011;5379;51.034;7.006;2022-12-05T16:15:30;13.80;;;12.33;;
10661;SDS011;5379;51.034;7.006;2022-12-05T16:17:58;13.67;;;12.37;;
10661;SDS011;5379;51.034;7.006;2022-12-05T16:20:28;14.03;;;11.73;;
10661;SDS011;5379;51.034;7.006;2022-12-05T16:22:57;12.73;;;11.43;;
10661;SDS011;5379;51.034;7.006;2022-12-05T16:25:28;13.60;;;12.20;;
10661;SDS011;5379;51.034;7.006;2022-12-05T16:28:02;22.20;;;11.50;;
10661;SDS011;5379;51.034;7.006;2022-12-05T16:30:51;12.13;;;11.03;;
10661;SDS011;5379;51.034;7.006;2022-12-05T16:33:19;14.60;;;12.93;;
10661;SDS011;5379;51.034;7.006;2022-12-05T16:35:46;16.17;;;13.47;;
10661;SDS011;5379;51.034;7.006;2022-12-05T16:38:17;14.27;;;12.87;;
10661;SDS011;5379;51.034;7.006;2022-12-05T16:43:40;14.53;;;13.13;;
10661;SDS011;5379;51.034;7.006;2022-12-05T16:49:13;20.27;;;13.73;;
10661;SDS011;5379;51.034;7.006;2022-12-05T16:51:51;15.93;;;14.23;;
10661;SDS011;5379;51.034;7.006;2022-12-05T16:54:21;17.33;;;14.03;;
10661;SDS011;5379;51.034;7.006;2022-12-05T16:56:49;16.43;;;14.13;;
10661;SDS011;5379;51.034;7.006;2022-12-05T16:59:19;18.23;;;15.33;;
10661;SDS011;5379;51.034;7.006;2022-12-05T17:01:49;15.30;;;13.80;;
10661;SDS011;5379;51.034;7.006;2022-12-05T17:04:16;21.60;;;14.87;;
10661;SDS011;5379;51.034;7.006;2022-12-05T17:06:44;16.43;;;14.77;;
10661;SDS011;5379;51.034;7.006;2022-12-05T17:09:11;16.53;;;14.80;;
10661;SDS011;5379;51.034;7.006;2022-12-05T17:11:38;15.00;;;13.50;;
10661;SDS011;5379;51.034;7.006;2022-12-05T17:14:10;16.13;;;14.17;;
10661;SDS011;5379;51.034;7.006;2022-12-05T17:16:39;18.33;;;14.00;;
10661;SDS011;5379;51.034;7.006;2022-12-05T17:19:06;16.20;;;13.03;;
10661;SDS011;5379;51.034;7.006;2022-12-05T17:21:34;14.70;;;13.20;;
10661;SDS011;5379;51.034;7.006;2022-12-05T17:24:01;15.23;;;13.67;;
10661;SDS011;5379;51.034;7.006;2022-12-05T17:26:28;16.57;;;14.50;;
10661;SDS011;5379;51.034;7.006;2022-12-05T17:28:55;15.23;;;13.60;;
10661;SDS011;5379;51.034;7.006;2022-12-05T17:31:24;15.00;;;13.30;;
10661;SDS011;5379;51.034;7.006;2022-12-05T17:33:52;16.53;;;13.70;;
10661;SDS011;5379;51.034;7.006;2022-12-05T17:36:20;15.13;;;12.80;;
10661;SDS011;5379;51.034;7.006;2022-12-05T17:38:50;14.27;;;12.80;;
10661;SDS011;5379;51.034;7.006;2022-12-05T17:41:17;15.90;;;14.23;;
10661;SDS011;5379;51.034;7.006;2022-12-05T17:43:47;15.27;;;13.53;;
10661;SDS011;5379;51.034;7.006;2022-12-05T17:46:16;13.67;;;12.27;;
10661;SDS011;5379;51.034;7.006;2022-12-05T17:48:45;13.23;;;11.80;;
10661;SDS011;5379;51.034;7.006;2022-12-05T17:51:12;14.00;;;12.60;;
10661;SDS011;5379;51.034;7.006;2022-12-05T17:53:40;16.03;;;13.20;;
10661;SDS011;5379;51.034;7.006;2022-12-05T17:56:09;16.43;;;13.23;;
10661;SDS011;5379;51.034;7.006;2022-12-05T17:58:37;16.97;;;14.63;;
10661;SDS011;5379;51.034;7.006;2022-12-05T18:01:04;15.30;;;13.73;;
10661;SDS011;5379;51.034;7.006;2022-12-05T18:03:32;14.87;;;13.37;;
10661;SDS011;5379;51.034;7.006;2022-12-05T18:06:02;13.77;;;12.33;;
10661;SDS011;5379;51.034;7.006;2022-12-05T18:08:30;18.57;;;12.97;;
10661;SDS011;5379;51.034;7.006;2022-12-05T18:10:58;13.93;;;12.53;;
10661;SDS011;5379;51.034;7.006;2022-12-05T18:13:25;14.90;;;13.40;;
10661;SDS011;5379;51.034;7.006;2022-12-05T18:15:54;14.83;;;12.50;;
10661;SDS011;5379;51.034;7.006;2022-12-05T18:18:22;14.73;;;11.87;;
10661;SDS011;5379;51.034;7.006;2022-12-05T18:20:51;14.60;;;12.97;;
10661;SDS011;5379;51.034;7.006;2022-12-05T18:23:20;15.13;;;12.93;;
10661;SDS011;5379;51.034;7.006;2022-12-05T18:25:55;14.00;;;12.53;;
10661;SDS011;5379;51.034;7.006;2022-12-05T18:28:23;14.73;;;12.97;;
10661;SDS011;5379;51.034;7.006;2022-12-05T18:30:50;14.33;;;12.93;;
10661;SDS011;5379;51.034;7.006;2022-12-05T18:33:27;13.97;;;12.63;;
10661;SDS011;5379;51.034;7.006;2022-12-05T18:35:54;13.47;;;11.70;;
10661;SDS011;5379;51.034;7.006;2022-12-05T18:38:22;13.73;;;12.33;;
10661;SDS011;5379;51.034;7.006;2022-12-05T18:40:49;15.07;;;13.50;;
10661;SDS011;5379;51.034;7.006;2022-12-05T18:43:24;15.90;;;14.43;;
10661;SDS011;5379;51.034;7.006;2022-12-05T18:45:53;20.70;;;16.40;;
10661;SDS011;5379;51.034;7.006;2022-12-05T18:48:21;16.23;;;14.37;;
10661;SDS011;5379;51.034;7.006;2022-12-05T18:50:48;15.93;;;14.37;;
10661;SDS011;5379;51.034;7.006;2022-12-05T18:53:15;14.33;;;12.67;;
10661;SDS011;5379;51.034;7.006;2022-12-05T18:55:44;17.23;;;13.57;;
10661;SDS011;5379;51.034;7.006;2022-12-05T18:58:11;14.70;;;13.30;;
10661;SDS011;5379;51.034;7.006;2022-12-05T19:00:38;17.30;;;14.90;;
10661;SDS011;5379;51.034;7.006;2022-12-05T19:03:06;15.57;;;13.97;;
10661;SDS011;5379;51.034;7.006;2022-12-05T19:05:33;17.57;;;15.43;;
10661;SDS011;5379;51.034;7.006;2022-12-05T19:08:00;15.30;;;13.77;;
10661;SDS011;5379;51.034;7.006;2022-12-05T19:10:27;16.50;;;14.03;;
10661;SDS011;5379;51.034;7.006;2022-12-05T19:12:55;16.20;;;14.50;;
10661;SDS011;5379;51.034;7.006;2022-12-05T19:15:23;16.50;;;13.23;;
10661;SDS011;5379;51.034;7.006;2022-12-05T19:17:50;14.33;;;13.00;;
10661;SDS011;5379;51.034;7.006;2022-12-05T19:20:17;14.33;;;12.33;;
10661;SDS011;5379;51.034;7.006;2022-12-05T19:22:44;13.63;;;12.30;;
10661;SDS011;5379;51.034;7.006;2022-12-05T19:25:11;14.07;;;12.50;;
10661;SDS011;5379;51.034;7.006;2022-12-05T19:27:38;13.17;;;11.83;;